Time;durP1;ratioP1;P1;durP2;ratioP2;P2;SDS_P1;SDS_P2;PMS_P1;PMS_P2;Temp;Humidity;BMP_temperature;BMP_pressure;BME280_temperature;BME280_humidity;BME280_pressure;Samples;Min_cycle;Max_cycle;Signal;HPM_P1;HPM_P2
2023/10/16 00:03:12;;;;;;;9.90;9.60;;;3.60;99.90;;;;;;5043787;28;20215;-88
2023/10/16 00:12:38;;;;;;;10.10;9.80;;;3.60;99.90;;;;;;5042119;28;20235;-88
2023/10/16 00:15:34;;;;;;;10.00;9.70;;;3.60;99.90;;;;;;5046485;28;20227;-89
2023/10/16 00:18:36;;;;;;;10.20;9.90;;;3.60;99.90;;;;;;5045732;28;20270;-88
2023/10/16 00:21:43;;;;;;;10.10;9.80;;;3.50;99.90;;;;;;5045889;28;20223;-88
2023/10/16 00:27:28;;;;;;;10.03;9.73;;;3.50;99.90;;;;;;5052586;28;20230;-89
2023/10/16 00:30:04;;;;;;;10.00;9.70;;;3.40;99.90;;;;;;5046200;28;20235;-88
2023/10/16 00:33:01;;;;;;;10.00;9.70;;;3.30;99.90;;;;;;5046109;28;20227;-88
2023/10/16 00:36:02;;;;;;;10.00;9.70;;;3.30;99.90;;;;;;5045688;28;20215;-88
2023/10/16 00:38:56;;;;;;;9.90;9.60;;;3.30;99.90;;;;;;5049750;28;20234;-88
2023/10/16 00:45:16;;;;;;;9.70;9.40;;;3.30;99.90;;;;;;5061161;28;20218;-87
2023/10/16 01:01:24;;;;;;;9.90;9.60;;;3.20;99.90;;;;;;5039461;28;20243;-88
2023/10/16 01:10:44;;;;;;;;;;;;;;;;;;;;;
2023/10/16 01:14:24;;;;;;;10.20;9.90;;;2.80;99.90;;;;;;5019473;28;20251;-89
2023/10/16 01:42:11;;;;;;;9.90;9.60;;;2.40;99.90;;;;;;5023781;28;20331;-88
2023/10/16 01:45:30;;;;;;;10.30;10.00;;;2.50;99.90;;;;;;5024727;28;20235;-88
2023/10/16 02:02:16;;;;;;;10.30;10.00;;;2.10;99.90;;;;;;4966023;28;20271;-89
2023/10/16 02:08:15;;;;;;;10.20;9.90;;;2.10;99.90;;;;;;5016915;28;20226;-89
2023/10/16 02:11:02;;;;;;;10.20;9.90;;;2.10;99.90;;;;;;5039217;28;20204;-89
2023/10/16 02:33:50;;;;;;;10.20;9.90;;;2.00;99.90;;;;;;5033448;28;20239;-90
2023/10/16 02:36:52;;;;;;;10.10;9.80;;;2.00;99.90;;;;;;5041039;28;20295;-89
2023/10/16 02:46:30;;;;;;;10.10;9.80;;;1.80;99.90;;;;;;4977606;28;20250;-89
2023/10/16 02:53:56;;;;;;;10.37;10.07;;;1.60;99.90;;;;;;4976439;28;20382;-90
2023/10/16 04:10:21;;;;;;;10.10;9.80;;;1.90;99.90;;;;;;6279998;22;1256480;-80
2023/10/16 04:12:51;;;;;;;10.30;10.00;;;1.80;99.90;;;;;;6334586;22;20211;-80
2023/10/16 04:15:24;;;;;;;10.07;9.77;;;1.70;99.90;;;;;;6334620;22;20224;-80
2023/10/16 04:18:04;;;;;;;10.10;9.80;;;1.60;99.90;;;;;;6334331;22;20184;-80
2023/10/16 04:20:43;;;;;;;10.17;9.87;;;1.50;99.90;;;;;;6303923;22;20188;-79
2023/10/16 04:23:29;;;;;;;10.23;9.93;;;1.40;99.90;;;;;;6304302;22;20195;-80
2023/10/16 04:29:20;;;;;;;10.00;9.70;;;1.30;99.90;;;;;;6302048;22;20205;-79
2023/10/16 04:31:43;;;;;;;10.10;9.80;;;1.20;99.90;;;;;;6303745;22;20260;-80
2023/10/16 04:34:25;;;;;;;10.30;10.00;;;1.20;99.90;;;;;;6303081;22;20193;-80
2023/10/16 04:36:52;;;;;;;10.00;9.70;;;1.10;99.90;;;;;;6303719;22;20195;-79
2023/10/16 04:45:00;;;;;;;9.80;9.50;;;1.00;99.90;;;;;;6303732;22;20196;-80
2023/10/16 04:47:29;;;;;;;9.90;9.60;;;1.00;99.90;;;;;;6304290;22;20197;-80
2023/10/16 04:50:08;;;;;;;9.57;9.27;;;1.00;99.90;;;;;;6303152;22;20231;-80
2023/10/16 04:58:27;;;;;;;9.57;9.27;;;1.10;99.90;;;;;;6301880;22;20201;-80
2023/10/16 05:00:57;;;;;;;9.53;9.23;;;1.10;99.90;;;;;;6301307;22;20217;-79
2023/10/16 05:03:25;;;;;;;9.50;9.20;;;1.00;99.90;;;;;;6296379;22;20284;-80
2023/10/16 05:06:04;;;;;;;9.37;9.07;;;1.00;99.90;;;;;;6296394;22;20201;-80
2023/10/16 05:08:35;;;;;;;9.27;8.97;;;1.10;99.90;;;;;;6295812;22;20205;-80
2023/10/16 05:14:04;;;;;;;9.60;9.30;;;1.10;99.90;;;;;;6296998;22;20186;-80
2023/10/16 05:16:35;;;;;;;9.33;9.03;;;1.00;99.90;;;;;;6296078;22;20193;-80
2023/10/16 05:19:16;;;;;;;9.07;8.77;;;1.00;99.90;;;;;;6295518;22;20236;-80
2023/10/16 06:14:36;;;;;;;8.80;8.60;;;1.20;99.90;;;;;;6299536;22;20276;-81
2023/10/16 06:17:15;;;;;;;9.60;9.30;;;1.30;99.90;;;;;;6298240;22;20208;-82
2023/10/16 06:19:43;;;;;;;9.30;9.00;;;1.40;99.90;;;;;;6297714;22;20201;-82
2023/10/16 06:22:13;;;;;;;9.20;8.90;;;1.40;99.90;;;;;;6296228;22;20205;-81
2023/10/16 06:24:44;;;;;;;9.20;8.90;;;1.50;99.90;;;;;;6294329;22;20197;-83
2023/10/16 06:27:18;;;;;;;8.87;8.67;;;1.50;99.90;;;;;;6293980;22;20189;-83
2023/10/16 06:29:50;;;;;;;8.50;8.30;;;1.60;99.90;;;;;;6294114;22;20216;-82
2023/10/16 06:32:26;;;;;;;8.83;8.63;;;1.60;99.90;;;;;;6296000;22;20196;-82
2023/10/16 06:35:00;;;;;;;8.87;8.67;;;1.70;99.90;;;;;;6296194;22;20193;-81
2023/10/16 06:37:31;;;;;;;9.60;9.30;;;1.70;99.90;;;;;;6295382;22;20185;-83
2023/10/16 06:40:01;;;;;;;9.20;8.90;;;1.80;99.90;;;;;;6295377;22;20201;-83
2023/10/16 06:42:28;;;;;;;8.80;8.60;;;1.80;99.90;;;;;;6294546;22;20208;-83
2023/10/16 06:45:06;;;;;;;8.97;8.77;;;1.80;99.90;;;;;;6294332;22;20273;-83
2023/10/16 06:47:47;;;;;;;8.90;8.70;;;1.80;99.90;;;;;;6293623;22;20197;-82
2023/10/16 06:53:01;;;;;;;9.00;8.80;;;1.90;99.90;;;;;;6293813;22;20193;-82
2023/10/16 06:55:30;;;;;;;9.27;8.97;;;1.90;99.90;;;;;;6295254;22;20236;-82
2023/10/16 06:58:09;;;;;;;9.00;8.80;;;1.80;99.90;;;;;;6294821;22;20248;-82
2023/10/16 07:00:38;;;;;;;8.90;8.70;;;1.90;99.90;;;;;;6293766;22;20335;-82
2023/10/16 07:03:12;;;;;;;9.07;8.80;;;1.90;99.90;;;;;;6292774;22;20197;-82
2023/10/16 07:05:48;;;;;;;9.20;8.90;;;1.90;99.90;;;;;;6298649;22;20217;-83
2023/10/16 07:08:22;;;;;;;9.37;9.07;;;2.00;99.90;;;;;;6295173;22;20193;-82
2023/10/16 07:11:04;;;;;;;8.90;8.70;;;2.10;99.90;;;;;;6294481;22;20221;-82
2023/10/16 07:13:32;;;;;;;8.83;8.63;;;2.00;99.90;;;;;;6292898;22;20200;-83
2023/10/16 07:16:00;;;;;;;8.70;8.50;;;2.10;99.90;;;;;;6293628;22;20193;-83
2023/10/16 07:18:35;;;;;;;8.80;8.60;;;2.30;99.90;;;;;;6297370;22;20198;-82
2023/10/16 07:21:10;;;;;;;8.80;8.60;;;2.40;99.90;;;;;;6295517;22;20201;-82
2023/10/16 07:23:39;;;;;;;9.20;8.90;;;2.40;99.90;;;;;;6294200;22;20197;-83
2023/10/16 07:26:09;;;;;;;9.10;8.80;;;2.60;99.90;;;;;;6291544;22;20216;-81
2023/10/16 07:28:38;;;;;;;9.13;8.83;;;2.70;99.90;;;;;;6293735;22;20206;-84
2023/10/16 07:31:10;;;;;;;9.37;9.07;;;2.80;99.90;;;;;;6292895;22;20201;-83
2023/10/16 07:33:39;;;;;;;9.50;9.20;;;2.90;99.90;;;;;;6291946;22;20253;-81
2023/10/16 07:36:11;;;;;;;9.67;9.37;;;3.00;99.90;;;;;;6292516;22;20200;-83
2023/10/16 07:38:39;;;;;;;9.60;9.30;;;3.10;99.90;;;;;;6293372;22;20205;-82
2023/10/16 07:41:13;;;;;;;9.70;9.40;;;3.20;99.90;;;;;;6294168;22;20208;-84
2023/10/16 07:43:45;;;;;;;9.47;9.17;;;3.30;99.90;;;;;;6294307;22;20272;-83
2023/10/16 07:46:29;;;;;;;9.70;9.40;;;3.40;99.90;;;;;;6293159;22;20253;-82
2023/10/16 07:49:09;;;;;;;9.37;9.07;;;3.50;99.90;;;;;;6292752;22;20198;-82
2023/10/16 07:51:36;;;;;;;9.67;9.37;;;3.60;99.90;;;;;;6295147;22;20237;-82
2023/10/16 07:54:17;;;;;;;9.80;9.50;;;3.70;99.90;;;;;;6299726;22;20220;-82
2023/10/16 07:56:45;;;;;;;9.70;9.40;;;3.90;99.90;;;;;;6297957;22;20197;-81
2023/10/16 07:59:18;;;;;;;9.97;9.67;;;4.00;99.90;;;;;;6295764;22;20201;-82
2023/10/16 08:01:54;;;;;;;9.83;9.53;;;4.10;99.90;;;;;;6294238;22;20273;-83
2023/10/16 08:04:35;;;;;;;10.07;9.77;;;4.20;99.90;;;;;;6295818;22;20219;-83
2023/10/16 08:07:16;;;;;;;10.27;9.97;;;4.30;99.90;;;;;;6294155;22;20217;-82
2023/10/16 08:12:36;;;;;;;10.27;9.97;;;4.50;99.90;;;;;;6291569;22;20194;-81
2023/10/16 08:15:15;;;;;;;10.30;10.00;;;4.70;99.90;;;;;;6294732;22;20248;-79
2023/10/16 08:17:45;;;;;;;10.40;10.10;;;4.80;99.90;;;;;;6294397;22;20532;-80
2023/10/16 08:20:19;;;;;;;10.40;10.10;;;4.90;99.90;;;;;;6296522;22;20252;-81
2023/10/16 08:22:49;;;;;;;10.20;9.90;;;5.10;99.90;;;;;;6295597;22;20193;-80
2023/10/16 08:28:20;;;;;;;9.63;9.33;;;5.50;99.90;;;;;;6298098;22;20194;-79
2023/10/16 08:30:50;;;;;;;9.60;9.30;;;5.60;99.90;;;;;;6296840;22;20189;-78
2023/10/16 08:33:18;;;;;;;9.70;9.40;;;5.80;99.90;;;;;;6296534;22;20245;-79
2023/10/16 08:35:46;;;;;;;9.60;9.30;;;6.00;99.90;;;;;;6298276;22;20205;-78
2023/10/16 08:38:19;;;;;;;9.60;9.30;;;6.30;99.90;;;;;;6296697;22;20225;-80
2023/10/16 08:40:46;;;;;;;9.67;9.37;;;6.50;99.90;;;;;;6298636;22;20219;-79
2023/10/16 08:43:18;;;;;;;9.60;9.30;;;6.80;99.90;;;;;;6297978;22;20194;-79
2023/10/16 08:45:55;;;;;;;9.37;9.07;;;7.00;99.90;;;;;;6298280;22;20194;-80
2023/10/16 08:48:24;;;;;;;9.60;9.30;;;7.20;99.90;;;;;;6297817;22;20284;-80
2023/10/16 08:50:58;;;;;;;9.47;9.17;;;7.40;99.90;;;;;;6297382;22;20288;-79
2023/10/16 08:53:32;;;;;;;9.37;9.07;;;7.50;99.90;;;;;;6298520;22;20193;-80
2023/10/16 08:56:03;;;;;;;9.33;9.03;;;7.60;99.90;;;;;;6297118;22;20186;-79
2023/10/16 08:58:36;;;;;;;9.23;8.93;;;7.70;99.90;;;;;;6298166;22;20202;-79
2023/10/16 09:01:07;;;;;;;9.97;9.67;;;7.90;99.90;;;;;;6297724;22;20196;-80
2023/10/16 09:03:44;;;;;;;9.60;9.30;;;8.10;99.90;;;;;;6296886;22;20222;-79
2023/10/16 09:06:22;;;;;;;9.70;9.40;;;8.40;99.90;;;;;;6300313;22;20196;-79
2023/10/16 09:08:51;;;;;;;10.10;9.80;;;8.70;99.90;;;;;;6298914;22;20204;-79
2023/10/16 09:11:20;;;;;;;10.10;9.80;;;8.80;99.90;;;;;;6297225;22;20204;-78
2023/10/16 09:13:51;;;;;;;10.10;9.80;;;9.10;99.90;;;;;;6298621;22;20200;-80
2023/10/16 09:16:21;;;;;;;10.00;9.70;;;9.30;99.90;;;;;;6297382;22;20200;-80
2023/10/16 09:18:50;;;;;;;10.10;9.80;;;9.30;99.90;;;;;;6297609;22;20301;-79
2023/10/16 09:21:24;;;;;;;9.97;9.67;;;9.60;99.90;;;;;;6296014;22;20193;-78
2023/10/16 09:23:58;;;;;;;9.93;9.63;;;10.00;99.90;;;;;;6297301;22;20178;-79
2023/10/16 09:26:28;;;;;;;9.70;9.40;;;10.20;99.90;;;;;;6297167;22;20197;-79
2023/10/16 09:29:00;;;;;;;9.80;9.50;;;10.50;99.90;;;;;;6297269;22;20697;-79
2023/10/16 09:31:32;;;;;;;10.00;9.70;;;10.80;99.90;;;;;;6297104;22;20205;-79
2023/10/16 09:34:00;;;;;;;9.40;9.10;;;10.90;99.90;;;;;;6297016;22;20205;-80
2023/10/16 09:36:36;;;;;;;9.50;9.20;;;11.20;99.90;;;;;;6297259;22;20197;-79
2023/10/16 09:39:16;;;;;;;9.37;9.07;;;11.50;99.90;;;;;;6296640;22;20275;-79
2023/10/16 09:41:46;;;;;;;9.50;9.20;;;11.60;99.90;;;;;;6296564;22;20250;-81
2023/10/16 09:44:36;;;;;;;9.50;9.20;;;11.70;99.90;;;;;;6297485;22;20192;-80
2023/10/16 09:47:25;;;;;;;9.80;9.50;;;11.90;99.90;;;;;;6297599;22;20691;-80
2023/10/16 09:49:54;;;;;;;10.00;9.70;;;12.10;99.90;;;;;;6297063;22;20209;-79
2023/10/16 09:52:24;;;;;;;9.80;9.50;;;12.20;99.90;;;;;;6298042;22;20220;-80
2023/10/16 09:54:52;;;;;;;10.30;10.00;;;12.30;99.90;;;;;;6297335;22;20269;-80
2023/10/16 09:57:22;;;;;;;10.30;10.00;;;12.40;99.90;;;;;;6296257;22;20206;-79
2023/10/16 10:00:22;;;;;;;10.20;9.90;;;12.60;99.90;;;;;;6294185;22;20213;-80
2023/10/16 10:02:55;;;;;;;10.17;9.87;;;12.70;99.90;;;;;;6295562;22;20232;-80
2023/10/16 10:05:34;;;;;;;10.30;10.00;;;12.80;99.90;;;;;;6296650;22;20190;-81
2023/10/16 10:08:15;;;;;;;10.10;9.80;;;12.90;99.90;;;;;;6303910;22;20246;-81
2023/10/16 10:13:35;;;;;;;10.30;10.00;;;12.50;99.90;;;;;;6304093;22;20178;-82
2023/10/16 10:19:01;;;;;;;10.50;10.20;;;12.50;99.90;;;;;;6298256;22;20226;-81
2023/10/16 10:21:44;;;;;;;10.50;10.20;;;12.50;99.90;;;;;;6298830;22;20205;-81
2023/10/16 10:24:27;;;;;;;10.20;9.90;;;12.60;99.90;;;;;;6297491;22;20194;-82
2023/10/16 10:26:59;;;;;;;10.50;10.20;;;12.60;99.90;;;;;;6298561;22;20197;-81
2023/10/16 10:29:26;;;;;;;10.20;9.90;;;13.00;99.90;;;;;;6298049;22;20261;-81
2023/10/16 10:31:57;;;;;;;10.07;9.77;;;13.30;99.90;;;;;;6298162;22;20205;-81
2023/10/16 10:34:27;;;;;;;9.87;9.57;;;13.30;99.90;;;;;;6298430;22;20198;-81
2023/10/16 10:36:58;;;;;;;10.00;9.70;;;13.30;99.90;;;;;;6297409;22;20193;-82
2023/10/16 10:39:46;;;;;;;9.90;9.60;;;13.50;99.90;;;;;;6295984;22;20202;-81
2023/10/16 10:42:24;;;;;;;9.87;9.57;;;13.50;99.90;;;;;;6297261;22;20194;-83
2023/10/16 10:45:17;;;;;;;9.70;9.40;;;13.60;99.90;;;;;;6296384;22;20224;-81
2023/10/16 10:47:45;;;;;;;9.87;9.57;;;13.50;99.90;;;;;;6297259;22;20244;-81
2023/10/16 10:50:16;;;;;;;9.70;9.40;;;13.60;99.90;;;;;;6296647;22;20259;-82
2023/10/16 10:52:46;;;;;;;9.90;9.60;;;13.90;99.90;;;;;;6298138;22;20189;-81
2023/10/16 10:55:26;;;;;;;10.07;9.77;;;13.90;99.90;;;;;;6298311;22;20224;-81
2023/10/16 10:58:00;;;;;;;10.40;10.10;;;14.00;99.90;;;;;;6296570;22;20186;-81
2023/10/16 11:00:49;;;;;;;10.27;9.97;;;14.20;99.90;;;;;;6296793;22;20189;-82
2023/10/16 11:03:33;;;;;;;10.40;10.10;;;14.30;99.90;;;;;;6296147;22;20289;-81
2023/10/16 11:06:01;;;;;;;10.20;9.90;;;14.70;99.90;;;;;;6296494;22;20199;-81
2023/10/16 11:08:35;;;;;;;10.27;9.98;;;15.30;99.90;;;;;;6295177;22;20237;-81
2023/10/16 11:11:13;;;;;;;10.18;9.88;;;15.50;99.90;;;;;;6296781;22;20248;-81
2023/10/16 11:13:46;;;;;;;9.95;9.65;;;15.10;99.90;;;;;;6297791;22;20193;-81
2023/10/16 11:16:14;;;;;;;9.90;9.60;;;14.50;99.90;;;;;;6298158;22;20193;-82
2023/10/16 11:18:43;;;;;;;10.07;9.77;;;13.20;99.90;;;;;;6296571;22;20198;-82
2023/10/16 11:21:13;;;;;;;9.80;9.50;;;12.60;99.90;;;;;;6297084;22;20233;-81
2023/10/16 11:23:42;;;;;;;10.10;9.80;;;12.60;99.90;;;;;;6297186;22;20186;-82
2023/10/16 11:26:19;;;;;;;9.60;9.30;;;12.50;99.90;;;;;;6296160;22;20202;-81
2023/10/16 11:28:49;;;;;;;9.60;9.30;;;12.40;99.90;;;;;;6296370;22;20271;-81
2023/10/16 11:31:18;;;;;;;9.30;9.00;;;12.50;99.90;;;;;;6296177;22;20203;-81
2023/10/16 11:34:00;;;;;;;10.00;9.70;;;12.90;99.90;;;;;;6297081;22;20918;-81
2023/10/16 11:36:28;;;;;;;9.80;9.50;;;13.30;99.90;;;;;;6296988;22;20193;-81
2023/10/16 11:39:02;;;;;;;9.83;9.53;;;13.60;99.90;;;;;;6296840;22;20252;-81
2023/10/16 11:41:36;;;;;;;10.03;9.73;;;13.70;99.90;;;;;;6297488;22;20220;-81
2023/10/16 11:44:12;;;;;;;10.00;9.70;;;14.30;99.90;;;;;;6297374;22;20201;-81
2023/10/16 11:46:51;;;;;;;10.00;9.70;;;14.80;99.90;;;;;;6297413;22;20224;-81
2023/10/16 11:49:29;;;;;;;9.77;9.48;;;15.30;99.90;;;;;;6297312;22;20201;-81
2023/10/16 11:52:08;;;;;;;9.95;9.65;;;15.30;99.90;;;;;;6295456;22;20209;-81
2023/10/16 11:54:40;;;;;;;10.10;9.80;;;15.60;99.90;;;;;;6296218;22;20182;-81
2023/10/16 11:57:13;;;;;;;10.05;9.75;;;15.90;99.90;;;;;;6295575;22;20197;-82
2023/10/16 11:59:44;;;;;;;10.40;10.10;;;16.30;99.90;;;;;;6296688;22;20197;-81
2023/10/16 12:02:12;;;;;;;10.18;9.88;;;16.60;99.90;;;;;;6295878;22;20200;-79
2023/10/16 12:04:41;;;;;;;10.15;9.85;;;16.80;99.90;;;;;;6295493;22;20221;-81
2023/10/16 12:07:08;;;;;;;10.10;9.80;;;17.00;99.90;;;;;;6297386;22;20201;-81
2023/10/16 12:09:42;;;;;;;10.40;10.10;;;17.20;99.90;;;;;;6297974;22;20657;-81
2023/10/16 12:12:19;;;;;;;10.40;10.10;;;17.60;99.90;;;;;;6298986;22;20217;-82
2023/10/16 12:14:48;;;;;;;10.40;10.10;;;17.80;99.90;;;;;;6299510;22;20208;-82
2023/10/16 12:17:19;;;;;;;10.50;10.20;;;18.00;99.90;;;;;;6296494;22;20216;-79
2023/10/16 12:19:47;;;;;;;10.38;10.07;;;18.00;99.90;;;;;;6300276;22;20253;-80
2023/10/16 12:22:20;;;;;;;10.60;10.30;;;18.20;99.90;;;;;;6299513;22;20245;-79
2023/10/16 12:24:47;;;;;;;10.40;10.10;;;18.60;99.90;;;;;;6298668;22;20203;-80
2023/10/16 12:27:17;;;;;;;10.38;10.07;;;18.60;99.90;;;;;;6298560;22;20210;-79
2023/10/16 12:29:44;;;;;;;10.20;9.90;;;18.60;99.90;;;;;;6299850;22;20257;-82
2023/10/16 12:32:12;;;;;;;10.40;10.10;;;18.40;99.90;;;;;;6299782;22;20212;-79
2023/10/16 12:34:41;;;;;;;10.55;10.25;;;18.60;99.90;;;;;;6299767;22;20233;-80
2023/10/16 12:37:08;;;;;;;10.40;10.10;;;18.80;99.90;;;;;;6299518;22;21082;-79
2023/10/16 12:39:45;;;;;;;10.30;10.00;;;19.00;99.90;;;;;;6300239;22;20237;-80
2023/10/16 12:42:13;;;;;;;10.40;10.10;;;19.10;99.90;;;;;;6298160;22;20201;-79
2023/10/16 12:44:47;;;;;;;10.43;10.13;;;19.20;99.90;;;;;;6298159;22;20217;-80
2023/10/16 12:47:14;;;;;;;10.93;10.63;;;19.20;99.90;;;;;;6297303;22;20228;-80
2023/10/16 12:49:42;;;;;;;10.60;10.30;;;19.10;99.90;;;;;;6296772;22;20297;-80
2023/10/16 12:52:10;;;;;;;10.40;10.10;;;19.10;99.90;;;;;;6295768;22;20218;-79
2023/10/16 12:54:52;;;;;;;10.60;10.30;;;18.40;99.90;;;;;;6295500;22;20211;-80
2023/10/16 12:57:19;;;;;;;10.57;10.27;;;18.20;99.90;;;;;;6296818;22;20193;-80
2023/10/16 12:59:49;;;;;;;10.50;10.20;;;18.50;99.90;;;;;;6299268;22;20209;-79
2023/10/16 13:02:25;;;;;;;10.40;10.10;;;18.70;99.90;;;;;;6296742;22;20201;-80
2023/10/16 13:04:53;;;;;;;10.50;10.20;;;18.50;99.90;;;;;;6295781;22;20190;-79
2023/10/16 13:07:22;;;;;;;10.18;9.88;;;18.50;99.90;;;;;;6297169;22;20197;-79
2023/10/16 13:09:49;;;;;;;9.93;9.63;;;18.70;99.90;;;;;;6296122;22;20208;-79
2023/10/16 13:12:16;;;;;;;10.10;9.80;;;18.80;99.90;;;;;;6299279;22;20325;-78
2023/10/16 13:14:49;;;;;;;9.98;9.68;;;19.00;99.90;;;;;;6298271;22;20194;-79
2023/10/16 13:17:19;;;;;;;9.93;9.63;;;19.00;99.90;;;;;;6297332;22;20190;-79
2023/10/16 13:19:47;;;;;;;9.68;9.38;;;19.30;99.90;;;;;;6298475;22;20210;-81
2023/10/16 13:22:17;;;;;;;9.60;9.30;;;19.50;99.90;;;;;;6297893;22;20225;-80
2023/10/16 13:24:44;;;;;;;9.70;9.40;;;19.80;99.90;;;;;;6298077;22;20198;-80
2023/10/16 13:27:11;;;;;;;10.45;10.15;;;19.60;99.90;;;;;;6297321;22;20205;-81
2023/10/16 13:29:40;;;;;;;10.50;10.20;;;19.70;99.90;;;;;;6298291;22;20237;-80
2023/10/16 13:32:09;;;;;;;10.70;10.40;;;19.70;99.90;;;;;;6293487;22;20253;-78
2023/10/16 13:34:38;;;;;;;10.50;10.20;;;19.30;99.90;;;;;;6295440;22;20201;-80
2023/10/16 13:37:09;;;;;;;10.80;10.50;;;19.30;99.90;;;;;;6295232;22;20201;-79
2023/10/16 13:39:39;;;;;;;10.77;10.48;;;19.40;99.90;;;;;;6294885;22;20206;-80
2023/10/16 13:42:09;;;;;;;10.50;10.20;;;19.50;99.90;;;;;;6295010;22;20212;-79
2023/10/16 13:44:37;;;;;;;10.40;10.10;;;19.70;99.90;;;;;;6294401;22;20233;-80
2023/10/16 13:47:06;;;;;;;10.35;10.05;;;19.80;99.90;;;;;;6295085;22;20202;-79
2023/10/16 13:49:36;;;;;;;10.45;10.15;;;19.60;99.90;;;;;;6295493;22;20214;-80
2023/10/16 13:52:07;;;;;;;10.50;10.20;;;19.80;99.90;;;;;;6295049;22;20196;-80
2023/10/16 13:54:38;;;;;;;10.50;10.20;;;20.00;99.90;;;;;;6295542;22;20224;-79
2023/10/16 13:57:07;;;;;;;10.40;10.10;;;19.50;99.90;;;;;;6293806;22;20189;-79
2023/10/16 13:59:33;;;;;;;10.70;10.40;;;19.50;99.90;;;;;;6292235;22;20279;-79
2023/10/16 14:02:02;;;;;;;10.52;10.23;;;18.90;99.90;;;;;;6292150;22;20197;-79
2023/10/16 14:04:33;;;;;;;10.55;10.25;;;19.30;99.90;;;;;;6292210;22;20253;-80
2023/10/16 14:07:08;;;;;;;10.82;10.52;;;19.50;99.90;;;;;;6293258;22;20252;-80
2023/10/16 14:09:38;;;;;;;10.90;10.60;;;20.00;99.90;;;;;;6293199;22;20211;-80
2023/10/16 14:12:06;;;;;;;10.63;10.32;;;20.00;99.90;;;;;;6299260;22;20190;-81
2023/10/16 14:14:33;;;;;;;11.00;10.70;;;20.10;99.90;;;;;;6295525;22;20400;-81
2023/10/16 14:17:03;;;;;;;10.85;10.55;;;20.10;99.90;;;;;;6295548;22;20201;-80
2023/10/16 14:19:32;;;;;;;10.90;10.60;;;20.00;99.90;;;;;;6295031;22;20368;-82
2023/10/16 14:22:01;;;;;;;10.80;10.50;;;19.80;99.90;;;;;;6296249;22;20213;-82
2023/10/16 14:24:29;;;;;;;10.75;10.45;;;20.20;99.90;;;;;;6295944;22;20202;-80
2023/10/16 14:26:59;;;;;;;10.73;10.43;;;20.50;99.90;;;;;;6299203;22;20209;-82
2023/10/16 14:29:29;;;;;;;10.82;10.52;;;20.50;99.90;;;;;;6296196;22;20225;-79
2023/10/16 14:31:57;;;;;;;10.63;10.32;;;20.60;99.90;;;;;;6294418;22;20201;-82
2023/10/16 14:34:27;;;;;;;11.00;10.70;;;20.80;99.90;;;;;;6296342;22;20349;-81
2023/10/16 14:37:08;;;;;;;11.00;10.70;;;21.20;99.90;;;;;;6293805;22;20366;-81
2023/10/16 14:39:35;;;;;;;10.40;10.10;;;21.40;99.90;;;;;;6293258;22;20277;-80
2023/10/16 14:42:06;;;;;;;10.57;10.27;;;21.50;99.90;;;;;;6293391;22;20309;-80
2023/10/16 14:44:34;;;;;;;10.45;10.15;;;21.60;99.90;;;;;;6294943;22;20220;-82
2023/10/16 14:47:09;;;;;;;10.38;10.07;;;21.70;99.90;;;;;;6292530;22;20201;-79
2023/10/16 14:49:36;;;;;;;10.38;10.07;;;21.90;99.90;;;;;;6293036;22;20200;-80
2023/10/16 14:52:04;;;;;;;9.95;9.65;;;21.90;99.90;;;;;;6293933;22;20209;-80
2023/10/16 14:54:31;;;;;;;10.05;9.75;;;22.20;99.90;;;;;;6293866;22;20193;-79
2023/10/16 14:57:01;;;;;;;9.90;9.60;;;21.80;99.90;;;;;;6294831;22;20272;-79
2023/10/16 14:59:34;;;;;;;10.10;9.80;;;22.00;99.90;;;;;;6293518;22;20205;-79
2023/10/16 15:02:02;;;;;;;10.00;9.70;;;21.60;99.90;;;;;;6294197;22;20255;-79
2023/10/16 15:04:31;;;;;;;10.10;9.80;;;21.40;99.90;;;;;;6293104;22;20201;-80
2023/10/16 15:07:04;;;;;;;9.98;9.68;;;21.70;99.90;;;;;;6292811;22;20694;-79
2023/10/16 15:09:31;;;;;;;9.75;9.45;;;21.60;99.90;;;;;;6291947;22;20267;-78
2023/10/16 15:11:59;;;;;;;9.90;9.60;;;21.80;99.90;;;;;;6292003;22;20201;-80
2023/10/16 15:14:29;;;;;;;9.70;9.40;;;21.50;99.90;;;;;;6291662;22;20193;-79
2023/10/16 15:17:00;;;;;;;9.50;9.20;;;21.60;99.90;;;;;;6291827;22;20205;-79
2023/10/16 15:19:28;;;;;;;9.68;9.38;;;21.40;99.90;;;;;;6291444;22;20225;-80
2023/10/16 15:22:08;;;;;;;9.43;9.13;;;21.10;99.90;;;;;;6292516;22;20194;-81
2023/10/16 15:24:37;;;;;;;9.90;9.60;;;20.90;99.90;;;;;;6293364;22;20257;-81
2023/10/16 15:27:04;;;;;;;9.93;9.63;;;20.20;99.90;;;;;;6290038;22;20229;-82
2023/10/16 15:29:33;;;;;;;10.55;10.25;;;20.00;99.90;;;;;;6292331;22;20325;-80
2023/10/16 15:32:12;;;;;;;10.10;9.80;;;19.10;99.90;;;;;;6291243;22;20193;-80
2023/10/16 15:34:39;;;;;;;10.10;9.80;;;18.80;99.90;;;;;;6290479;22;20249;-80
2023/10/16 15:37:08;;;;;;;9.90;9.60;;;18.40;99.90;;;;;;6290639;22;20234;-80
2023/10/16 15:39:35;;;;;;;9.88;9.57;;;17.90;99.90;;;;;;6291365;22;20206;-81
2023/10/16 15:42:02;;;;;;;9.75;9.45;;;17.40;99.90;;;;;;6290399;22;20223;-79
2023/10/16 15:44:32;;;;;;;9.77;9.48;;;16.90;99.90;;;;;;6290640;22;20207;-80
2023/10/16 15:47:01;;;;;;;10.10;9.80;;;16.50;99.90;;;;;;6290126;22;20285;-80
2023/10/16 15:49:30;;;;;;;10.00;9.70;;;16.00;99.90;;;;;;6289248;22;20208;-80
2023/10/16 15:51:59;;;;;;;9.88;9.57;;;15.80;99.90;;;;;;6289497;22;20304;-79
2023/10/16 15:54:28;;;;;;;10.30;10.00;;;15.60;99.90;;;;;;6287807;22;20197;-79
2023/10/16 15:56:55;;;;;;;10.00;9.70;;;15.30;99.90;;;;;;6288502;22;20197;-79
2023/10/16 15:59:22;;;;;;;10.20;9.90;;;15.10;99.90;;;;;;6287051;22;20413;-79
2023/10/16 16:01:49;;;;;;;10.20;9.90;;;14.60;99.90;;;;;;6292286;22;20213;-80
2023/10/16 16:04:18;;;;;;;9.88;9.57;;;14.10;99.90;;;;;;6289005;22;20185;-81
2023/10/16 16:06:47;;;;;;;9.68;9.38;;;13.90;99.90;;;;;;6292636;22;20231;-81
2023/10/16 16:09:14;;;;;;;9.70;9.40;;;13.70;99.90;;;;;;6291557;22;20205;-80
2023/10/16 16:11:44;;;;;;;9.43;9.13;;;13.50;99.90;;;;;;6292259;22;20200;-79
2023/10/16 16:14:12;;;;;;;9.50;9.20;;;13.30;99.90;;;;;;6293546;22;20201;-79
2023/10/16 16:16:41;;;;;;;9.50;9.20;;;13.10;99.90;;;;;;6298473;22;20307;-78
2023/10/16 16:19:08;;;;;;;9.47;9.17;;;12.90;99.90;;;;;;6296278;22;20208;-80
2023/10/16 16:21:36;;;;;;;9.10;8.80;;;12.60;99.90;;;;;;6296907;22;20200;-80
2023/10/16 16:24:09;;;;;;;9.37;9.07;;;12.40;99.90;;;;;;6295522;22;20200;-79
2023/10/16 16:26:39;;;;;;;9.53;9.23;;;12.30;99.90;;;;;;6297145;22;20224;-82
2023/10/16 16:29:08;;;;;;;9.47;9.17;;;12.20;99.90;;;;;;6296187;22;20217;-80
2023/10/16 16:31:35;;;;;;;9.40;9.10;;;11.90;99.90;;;;;;6296734;22;20258;-80
2023/10/16 16:34:03;;;;;;;9.00;8.80;;;11.70;99.90;;;;;;6297222;22;20194;-79
2023/10/16 16:36:32;;;;;;;9.00;8.80;;;11.60;99.90;;;;;;6294484;22;20193;-79
2023/10/16 16:38:59;;;;;;;8.90;8.70;;;11.50;99.90;;;;;;6295127;22;20201;-80
2023/10/16 16:41:28;;;;;;;9.33;9.03;;;11.40;99.90;;;;;;6295321;22;20389;-80
2023/10/16 16:43:55;;;;;;;8.40;8.20;;;11.30;99.90;;;;;;6293452;22;20201;-79
2023/10/16 16:46:23;;;;;;;8.43;8.23;;;11.00;99.90;;;;;;6293348;22;20190;-81
2023/10/16 16:48:51;;;;;;;8.47;8.27;;;11.00;99.90;;;;;;6290618;22;20198;-80
2023/10/16 16:51:19;;;;;;;8.50;8.30;;;10.90;99.90;;;;;;6292439;22;20234;-79
2023/10/16 16:53:47;;;;;;;8.97;8.70;;;10.80;99.90;;;;;;6291472;22;20284;-79
2023/10/16 16:56:15;;;;;;;9.10;8.80;;;10.70;99.90;;;;;;6288358;22;20208;-80
2023/10/16 16:58:43;;;;;;;8.70;8.50;;;10.50;99.90;;;;;;6292110;22;20227;-80
2023/10/16 17:01:11;;;;;;;9.00;8.80;;;10.40;99.90;;;;;;6288893;22;20296;-79
2023/10/16 17:03:39;;;;;;;9.20;8.90;;;10.30;99.90;;;;;;6290342;22;20272;-79
2023/10/16 17:06:07;;;;;;;9.20;8.90;;;10.10;99.90;;;;;;6289921;22;20279;-79
2023/10/16 17:08:34;;;;;;;9.13;8.87;;;10.00;99.90;;;;;;6291337;22;20292;-79
2023/10/16 17:11:01;;;;;;;9.40;9.10;;;9.90;99.90;;;;;;6293912;22;20193;-79
2023/10/16 17:13:29;;;;;;;9.70;9.40;;;9.80;99.90;;;;;;6295558;22;20220;-79
2023/10/16 17:16:04;;;;;;;8.93;8.73;;;9.70;99.90;;;;;;6298348;22;20193;-79
2023/10/16 17:18:31;;;;;;;9.00;8.80;;;9.70;99.90;;;;;;6296179;22;20201;-79
2023/10/16 17:21:05;;;;;;;9.00;8.80;;;9.60;99.90;;;;;;6299968;22;20262;-79
2023/10/16 17:23:33;;;;;;;8.60;8.40;;;9.60;99.90;;;;;;6298962;22;20200;-79
2023/10/16 17:26:00;;;;;;;8.93;8.73;;;9.60;99.90;;;;;;6298181;22;20205;-79
2023/10/16 17:28:30;;;;;;;8.87;8.67;;;9.50;99.90;;;;;;6291487;22;20205;-79
2023/10/16 17:31:01;;;;;;;8.93;8.73;;;9.50;99.90;;;;;;6291499;22;20202;-79
2023/10/16 17:33:29;;;;;;;9.03;8.80;;;9.40;99.90;;;;;;6288529;22;20185;-79
2023/10/16 17:36:02;;;;;;;8.90;8.70;;;9.40;99.90;;;;;;6290567;22;20212;-79
2023/10/16 17:38:29;;;;;;;9.00;8.80;;;9.30;99.90;;;;;;6289974;22;20209;-78
2023/10/16 17:40:57;;;;;;;9.00;8.80;;;9.40;99.90;;;;;;6288957;22;20202;-79
2023/10/16 17:43:27;;;;;;;9.10;8.87;;;9.30;99.90;;;;;;6289296;22;20209;-79